createdAt,value
2022-08-07T00:00:08.236Z,62.12
2022-08-07T00:01:12.788Z,62.12
2022-08-07T00:02:36.425Z,62.12
2022-08-07T00:03:09.260Z,62.12
2022-08-07T00:04:09.382Z,62.12
2022-08-07T00:05:08.250Z,62.03
2022-08-07T00:06:08.163Z,62.03
2022-08-07T00:07:09.523Z,62.12
2022-08-07T00:08:08.129Z,62.06
2022-08-07T00:09:17.006Z,62.03
2022-08-07T00:10:26.127Z,62.12
2022-08-07T00:11:09.125Z,62.03
2022-08-07T00:12:08.079Z,62.03
2022-08-07T00:13:23.474Z,62.15
2022-08-07T00:14:09.093Z,62.15
2022-08-07T00:15:08.038Z,62.15
2022-08-07T00:16:08.028Z,62.15
2022-08-07T00:17:09.048Z,62.15
2022-08-07T00:18:08.002Z,62.15
2022-08-07T00:19:09.026Z,62.15
2022-08-07T00:20:09.015Z,62.06
2022-08-07T00:21:57.101Z,62.15
2022-08-07T00:22:08.982Z,62.06
2022-08-07T00:23:08.245Z,62.06
2022-08-07T00:24:07.921Z,62.06
2022-08-07T00:25:15.726Z,62.25
2022-08-07T00:26:18.622Z,62.15
2022-08-07T00:27:09.288Z,62.15
2022-08-07T00:28:07.869Z,62.15
2022-08-07T00:29:07.863Z,62.06
2022-08-07T00:30:26.299Z,62.06
2022-08-07T00:31:12.326Z,62.15
2022-08-07T00:32:07.822Z,62.15
2022-08-07T00:33:07.848Z,62.25
2022-08-07T00:34:08.837Z,62.25
2022-08-07T00:35:07.785Z,62.25
2022-08-07T00:36:07.766Z,62.25
2022-08-07T00:37:07.750Z,62.25
2022-08-07T00:38:07.746Z,62.15
2022-08-07T00:39:07.747Z,62.25
2022-08-07T00:40:07.721Z,62.15
2022-08-07T00:41:10.000Z,62.15
2022-08-07T00:42:07.695Z,62.15
2022-08-07T00:43:09.511Z,62.15
2022-08-07T00:44:07.668Z,62.15
2022-08-07T00:45:07.644Z,62.15
2022-08-07T00:46:08.673Z,62.25
2022-08-07T00:47:16.034Z,62.15
2022-08-07T00:48:10.830Z,62.15
2022-08-07T00:49:07.596Z,62.25
2022-08-07T00:50:19.571Z,62.15
2022-08-07T00:51:08.616Z,62.15
2022-08-07T00:52:07.558Z,62.25
2022-08-07T00:53:09.296Z,62.25
2022-08-07T00:54:07.530Z,62.15
2022-08-07T00:55:10.363Z,62.15
2022-08-07T00:56:07.551Z,62.15
2022-08-07T00:57:08.540Z,62.06
2022-08-07T00:58:07.477Z,62.15
2022-08-07T00:59:07.475Z,62.15
2022-08-07T01:00:07.453Z,62.25
2022-08-07T01:01:07.477Z,61.95
2022-08-07T01:02:14.252Z,61.95
2022-08-07T01:03:08.455Z,62.06
2022-08-07T01:04:07.513Z,62.06
2022-08-07T01:05:18.778Z,62.15
2022-08-07T01:06:08.416Z,62.06
2022-08-07T01:07:07.359Z,62.15
2022-08-07T01:08:09.076Z,62.25
2022-08-07T01:09:07.333Z,62.25
2022-08-07T01:10:11.235Z,62.25
2022-08-07T01:12:23.478Z,62.35
2022-08-07T01:12:29.233Z,62.35
2022-08-07T01:13:08.314Z,62.35
2022-08-07T01:14:07.275Z,62.15
2022-08-07T01:15:07.263Z,62.25
2022-08-07T01:16:07.244Z,62.25
2022-08-07T01:17:07.299Z,62.25
2022-08-07T01:18:07.217Z,62.25
2022-08-07T01:19:10.889Z,62.25
2022-08-07T01:20:08.240Z,62.15
2022-08-07T01:21:07.177Z,62.35
2022-08-07T01:22:08.735Z,62.25
2022-08-07T01:23:12.879Z,62.25
2022-08-07T01:24:07.138Z,62.15
2022-08-07T01:25:54.870Z,62.15
2022-08-07T01:26:08.153Z,62.25
2022-08-07T01:27:19.370Z,62.15
2022-08-07T01:28:08.120Z,62.15
2022-08-07T01:29:07.077Z,62.15
2022-08-07T01:30:07.065Z,62.15
2022-08-07T01:31:07.047Z,62.15
2022-08-07T01:32:12.446Z,62.15
2022-08-07T01:33:08.070Z,62.15
2022-08-07T01:34:07.005Z,62.15
2022-08-07T01:35:06.995Z,62.15
2022-08-07T01:36:07.555Z,62.15
2022-08-07T01:37:09.822Z,62.35
2022-08-07T01:38:06.953Z,62.28
2022-08-07T01:39:10.077Z,62.35
2022-08-07T01:40:06.927Z,62.15
2022-08-07T01:41:07.956Z,62.25
2022-08-07T01:42:36.891Z,62.25
2022-08-07T01:43:07.934Z,62.28
2022-08-07T01:44:06.877Z,62.18
2022-08-07T01:45:10.036Z,62.18
2022-08-07T01:46:08.228Z,62.28
2022-08-07T01:48:16.618Z,62.28
2022-08-07T01:48:19.637Z,62.28
2022-08-07T01:49:08.250Z,62.39
2022-08-07T01:50:06.799Z,62.28
2022-08-07T01:51:24.283Z,62.18
2022-08-07T01:52:07.807Z,62.28
2022-08-07T01:53:08.952Z,62.28
2022-08-07T01:54:12.373Z,62.28
2022-08-07T01:55:07.775Z,62.28
2022-08-07T01:56:07.759Z,62.39
2022-08-07T01:57:08.238Z,62.39
2022-08-07T01:58:28.842Z,62.39
2022-08-07T01:59:07.725Z,62.39
2022-08-07T02:00:12.988Z,62.39
2022-08-07T02:01:25.189Z,62.28
2022-08-07T02:02:10.538Z,62.39
2022-08-07T02:03:19.222Z,62.48
2022-08-07T02:04:07.746Z,62.39
2022-08-07T02:05:06.619Z,62.39
2022-08-07T02:06:30.926Z,62.39
2022-08-07T02:07:07.625Z,62.39
2022-08-07T02:08:06.565Z,62.39
2022-08-07T02:09:06.551Z,62.48
2022-08-07T02:10:06.542Z,62.48
2022-08-07T02:11:06.535Z,62.39
2022-08-07T02:12:06.519Z,62.39
2022-08-07T02:13:07.819Z,62.48
2022-08-07T02:14:06.493Z,62.39
2022-08-07T02:15:06.873Z,62.39
2022-08-07T02:16:07.599Z,62.39
2022-08-07T02:17:06.453Z,62.39
2022-08-07T02:18:06.555Z,62.28
2022-08-07T02:20:05.058Z,62.28
2022-08-07T02:20:17.042Z,62.28
2022-08-07T02:21:07.435Z,62.39
2022-08-07T02:22:07.863Z,62.39
2022-08-07T02:23:06.372Z,62.39
2022-08-07T02:24:06.364Z,62.39
2022-08-07T02:25:07.429Z,62.39
2022-08-07T02:26:31.412Z,62.39
2022-08-07T02:27:07.358Z,62.39
2022-08-07T02:28:07.011Z,62.39
2022-08-07T02:29:06.302Z,62.39
2022-08-07T02:30:08.525Z,62.48
2022-08-07T02:31:10.241Z,62.48
2022-08-07T02:32:07.294Z,62.39
2022-08-07T02:33:09.553Z,62.39
2022-08-07T02:34:11.251Z,62.28
2022-08-07T02:35:09.163Z,62.39
2022-08-07T02:36:30.302Z,62.48
2022-08-07T02:37:08.199Z,62.48
2022-08-07T02:38:06.181Z,62.39
2022-08-07T02:39:16.051Z,62.48
2022-08-07T02:40:31.222Z,62.48
2022-08-07T02:41:07.919Z,62.39
2022-08-07T02:42:10.303Z,62.48
2022-08-07T02:43:07.986Z,62.48
2022-08-07T02:44:06.103Z,62.48
2022-08-07T02:45:18.432Z,62.48
2022-08-07T02:46:07.104Z,62.48
2022-08-07T02:47:06.064Z,62.48
2022-08-07T02:48:10.299Z,62.48
2022-08-07T02:49:07.061Z,62.39
2022-08-07T02:50:06.373Z,62.39
2022-08-07T02:51:06.002Z,62.28
2022-08-07T02:52:05.991Z,62.39
2022-08-07T02:53:06.302Z,62.39
2022-08-07T02:54:05.964Z,62.39
2022-08-07T02:55:05.950Z,62.39
2022-08-07T02:56:13.057Z,62.48
2022-08-07T02:57:06.960Z,62.48
2022-08-07T02:58:05.912Z,62.48
2022-08-07T02:59:05.898Z,62.48
2022-08-07T03:00:10.973Z,62.48
2022-08-07T03:01:05.916Z,62.48
2022-08-07T03:02:06.967Z,62.48
2022-08-07T03:03:06.273Z,62.39
2022-08-07T03:04:07.841Z,62.48
2022-08-07T03:05:06.953Z,62.48
2022-08-07T03:06:05.807Z,62.39
2022-08-07T03:07:10.462Z,62.48
2022-08-07T03:08:09.465Z,62.48
2022-08-07T03:09:05.766Z,62.39
2022-08-07T03:10:05.754Z,62.39
2022-08-07T03:11:05.739Z,62.48
2022-08-07T03:12:05.736Z,62.48
2022-08-07T03:13:05.713Z,62.48
2022-08-07T03:14:05.702Z,62.51
2022-08-07T03:15:07.933Z,62.51
2022-08-07T03:16:05.674Z,62.59
2022-08-07T03:17:05.662Z,62.59
2022-08-07T03:18:05.654Z,62.51
2022-08-07T03:19:05.639Z,62.51
2022-08-07T03:20:05.623Z,62.42
2022-08-07T03:21:08.676Z,62.42
2022-08-07T03:22:05.597Z,62.31
2022-08-07T03:23:05.593Z,62.28
2022-08-07T03:24:19.600Z,62.42
2022-08-07T03:25:06.600Z,62.51
2022-08-07T03:26:05.547Z,62.42
2022-08-07T03:27:09.081Z,62.42
2022-08-07T03:28:36.802Z,62.42
2022-08-07T03:29:11.151Z,62.51
2022-08-07T03:30:06.528Z,62.51
2022-08-07T03:31:05.478Z,62.62
2022-08-07T03:32:05.473Z,62.51
2022-08-07T03:33:08.554Z,62.51
2022-08-07T03:34:05.445Z,62.51
2022-08-07T03:35:18.099Z,62.51
2022-08-07T03:36:06.461Z,62.42
2022-08-07T03:37:12.633Z,62.51
2022-08-07T03:38:06.431Z,62.51
2022-08-07T03:39:05.784Z,62.51
2022-08-07T03:40:16.232Z,62.42
2022-08-07T03:41:06.428Z,62.42
2022-08-07T03:42:05.341Z,62.42
2022-08-07T03:43:05.322Z,62.42
2022-08-07T03:44:06.341Z,62.42
2022-08-07T03:45:05.393Z,62.42
2022-08-07T03:46:10.409Z,62.42
2022-08-07T03:47:14.023Z,62.42
2022-08-07T03:48:10.123Z,62.42
2022-08-07T03:49:05.247Z,62.31
2022-08-07T03:50:05.237Z,62.31
2022-08-07T03:51:05.223Z,62.42
2022-08-07T03:52:05.199Z,62.31
2022-08-07T03:53:05.200Z,62.31
2022-08-07T03:54:35.980Z,62.31
2022-08-07T03:55:07.880Z,62.31
2022-08-07T03:56:05.262Z,62.31
2022-08-07T03:57:07.438Z,62.31
2022-08-07T03:58:33.134Z,62.42
2022-08-07T03:59:12.758Z,62.31
2022-08-07T04:00:05.097Z,62.31
2022-08-07T04:01:07.349Z,62.31
2022-08-07T04:02:05.074Z,62.21
2022-08-07T04:03:05.339Z,62.31
2022-08-07T04:04:05.087Z,62.31
2022-08-07T04:05:05.031Z,62.31
2022-08-07T04:06:05.025Z,62.21
2022-08-07T04:07:07.634Z,62.31
2022-08-07T04:08:06.027Z,62.31
2022-08-07T04:09:04.977Z,62.31
2022-08-07T04:10:04.964Z,62.21
2022-08-07T04:12:20.820Z,62.31
2022-08-07T04:12:26.380Z,62.31
2022-08-07T04:13:05.956Z,62.31
2022-08-07T04:14:33.009Z,62.31
2022-08-07T04:15:05.939Z,62.31
2022-08-07T04:16:04.885Z,62.21
2022-08-07T04:17:04.876Z,62.21
2022-08-07T04:18:56.604Z,62.21
2022-08-07T04:19:14.952Z,62.21
2022-08-07T04:20:05.864Z,62.21
2022-08-07T04:21:04.832Z,62.21
2022-08-07T04:22:07.797Z,62.21
2022-08-07T04:23:06.198Z,62.21
2022-08-07T04:24:07.017Z,62.21
2022-08-07T04:25:08.640Z,62.21
2022-08-07T04:26:05.788Z,62.21
2022-08-07T04:27:04.746Z,62.21
2022-08-07T04:28:04.727Z,62.11
2022-08-07T04:29:04.721Z,62.11
2022-08-07T04:30:10.217Z,62.11
2022-08-07T04:31:05.731Z,62.11
2022-08-07T04:32:10.719Z,62.11
2022-08-07T04:33:07.224Z,62.01
2022-08-07T04:34:04.658Z,62.01
2022-08-07T04:35:06.314Z,61.91
2022-08-07T04:36:06.500Z,61.91
2022-08-07T04:37:08.077Z,61.81
2022-08-07T04:38:07.072Z,61.81
2022-08-07T04:39:04.693Z,61.68
2022-08-07T04:40:04.567Z,61.58
2022-08-07T04:41:04.562Z,61.58
2022-08-07T04:42:04.545Z,61.58
2022-08-07T04:43:04.534Z,61.48
2022-08-07T04:44:12.865Z,61.38
2022-08-07T04:45:08.206Z,61.28
2022-08-07T04:46:04.489Z,61.18
2022-08-07T04:47:08.083Z,61.08
2022-08-07T04:48:10.813Z,61.08
2022-08-07T04:49:07.554Z,60.98
2022-08-07T04:50:05.482Z,60.98
2022-08-07T04:51:04.428Z,60.85
2022-08-07T04:52:04.422Z,60.75
2022-08-07T04:53:04.401Z,60.75
2022-08-07T04:54:06.338Z,60.75
2022-08-07T04:55:14.843Z,60.65
2022-08-07T04:58:10.443Z,60.55
2022-08-07T04:58:12.787Z,60.44
2022-08-07T04:58:16.756Z,60.55
2022-08-07T04:59:08.395Z,60.44
2022-08-07T05:00:09.665Z,60.44
2022-08-07T05:01:05.371Z,60.24
2022-08-07T05:02:05.318Z,60.15
2022-08-07T05:03:31.119Z,60.24
2022-08-07T05:04:08.339Z,60.04
2022-08-07T05:05:51.625Z,60.04
2022-08-07T05:06:19.627Z,60.24
2022-08-07T05:07:09.622Z,60.15
2022-08-07T05:08:05.238Z,59.71
2022-08-07T05:09:04.191Z,59.52
2022-08-07T05:10:04.498Z,59.82
2022-08-07T05:11:04.169Z,59.91
2022-08-07T05:12:04.753Z,59.82
2022-08-07T05:14:45.677Z,59.61
2022-08-07T05:14:52.257Z,59.71
2022-08-07T05:15:05.324Z,59.71
2022-08-07T05:16:04.591Z,59.52
2022-08-07T05:17:05.938Z,59.52
2022-08-07T05:18:08.791Z,59.41
2022-08-07T05:19:04.056Z,59.52
2022-08-07T05:20:07.854Z,59.41
2022-08-07T05:21:04.118Z,59.41
2022-08-07T05:22:04.769Z,59.32
2022-08-07T05:23:04.006Z,59.32
2022-08-07T05:24:03.990Z,59.21
2022-08-07T05:25:08.430Z,58.99
2022-08-07T05:26:15.663Z,59.08
2022-08-07T05:27:05.010Z,59.08
2022-08-07T05:28:20.408Z,59.08
2022-08-07T05:29:04.973Z,59.08
2022-08-07T05:30:03.921Z,59.08
2022-08-07T05:31:03.898Z,58.88
2022-08-07T05:32:03.883Z,58.88
2022-08-07T05:33:03.871Z,58.88
2022-08-07T05:34:05.844Z,58.78
2022-08-07T05:35:04.925Z,58.78
2022-08-07T05:36:03.851Z,58.68
2022-08-07T05:37:05.726Z,58.48
2022-08-07T05:38:08.876Z,58.38
2022-08-07T05:40:05.902Z,58.58
2022-08-07T05:40:06.720Z,58.48
2022-08-07T05:41:12.408Z,58.48
2022-08-07T05:42:12.397Z,58.48
2022-08-07T05:43:03.743Z,58.48
2022-08-07T05:44:12.040Z,58.48
2022-08-07T05:45:25.782Z,58.38
2022-08-07T05:46:05.703Z,58.38
2022-08-07T05:47:11.821Z,58.38
2022-08-07T05:48:05.113Z,58.38
2022-08-07T05:49:12.095Z,58.38
2022-08-07T05:50:04.693Z,58.28
2022-08-07T05:51:03.649Z,58.38
2022-08-07T05:52:03.624Z,58.28
2022-08-07T05:53:04.091Z,58.28
2022-08-07T05:54:12.901Z,58.28
2022-08-07T05:55:10.765Z,58.18
2022-08-07T05:56:06.179Z,58.18
2022-08-07T05:57:03.622Z,58.28
2022-08-07T05:58:03.553Z,58.18
2022-08-07T05:59:03.532Z,58.18
2022-08-07T06:00:03.517Z,58.08
2022-08-07T06:01:04.949Z,58.08
2022-08-07T06:02:03.520Z,58.08
2022-08-07T06:03:03.488Z,58.28
2022-08-07T06:04:03.467Z,58.08
2022-08-07T06:05:03.879Z,58.28
2022-08-07T06:06:03.454Z,58.38
2022-08-07T06:07:04.424Z,58.38
2022-08-07T06:08:05.318Z,58.38
2022-08-07T06:09:05.109Z,58.38
2022-08-07T06:10:03.394Z,58.18
2022-08-07T06:11:03.836Z,58.28
2022-08-07T06:12:03.367Z,58.28
2022-08-07T06:13:03.349Z,58.05
2022-08-07T06:14:13.174Z,58.08
2022-08-07T06:15:05.830Z,58.16
2022-08-07T06:16:03.314Z,58.28
2022-08-07T06:17:07.065Z,58.28
2022-08-07T06:18:03.280Z,58.28
2022-08-07T06:19:03.266Z,58.38
2022-08-07T06:20:04.203Z,58.38
2022-08-07T06:22:11.919Z,58.38
2022-08-07T06:22:16.874Z,58.38
2022-08-07T06:23:46.557Z,58.48
2022-08-07T06:24:46.225Z,58.28
2022-08-07T06:25:04.224Z,58.18
2022-08-07T06:26:03.175Z,57.98
2022-08-07T06:27:03.758Z,57.95
2022-08-07T06:28:03.347Z,58.16
2022-08-07T06:29:03.146Z,58.28
2022-08-07T06:30:03.126Z,58.25
2022-08-07T06:31:03.820Z,58.18
2022-08-07T06:32:03.104Z,57.78
2022-08-07T06:33:03.636Z,58.16
2022-08-07T06:34:03.078Z,57.88
2022-08-07T06:35:03.059Z,57.65
2022-08-07T06:36:12.315Z,57.35
2022-08-07T06:37:04.072Z,57.65
2022-08-07T06:38:03.022Z,58.05
2022-08-07T06:40:13.082Z,57.55
2022-08-07T06:40:18.408Z,57.65
2022-08-07T06:41:04.061Z,57.68
2022-08-07T06:42:03.616Z,57.38
2022-08-07T06:43:02.962Z,57.85
2022-08-07T06:44:10.880Z,57.68
2022-08-07T06:45:03.964Z,57.45
2022-08-07T06:46:02.912Z,57.48
2022-08-07T06:47:10.163Z,57.78
2022-08-07T06:48:03.929Z,58.18
2022-08-07T06:49:04.491Z,57.78
2022-08-07T06:50:03.851Z,57.88
2022-08-07T06:51:08.220Z,57.88
2022-08-07T06:52:07.580Z,57.88
2022-08-07T06:53:04.380Z,57.98
2022-08-07T06:55:28.261Z,57.68
2022-08-07T06:55:33.712Z,57.88
2022-08-07T06:56:03.819Z,57.68
2022-08-07T06:57:02.770Z,57.68
2022-08-07T06:58:02.758Z,57.08
2022-08-07T07:00:11.804Z,57.58
2022-08-07T07:00:13.438Z,57.48
2022-08-07T07:01:03.772Z,57.58
2022-08-07T07:02:02.755Z,57.98
2022-08-07T07:03:08.495Z,58.08
2022-08-07T07:04:28.418Z,58.18
2022-08-07T07:05:03.714Z,58.18
2022-08-07T07:06:06.309Z,58.18
2022-08-07T07:07:10.348Z,58.18
2022-08-07T07:08:06.894Z,58.28
2022-08-07T07:09:03.655Z,58.18
2022-08-07T07:10:02.609Z,58.28
2022-08-07T07:11:13.119Z,58.38
2022-08-07T07:12:08.357Z,58.28
2022-08-07T07:13:03.602Z,58.38
2022-08-07T07:14:02.758Z,58.28
2022-08-07T07:15:03.282Z,57.78
2022-08-07T07:16:02.528Z,57.48
2022-08-07T07:17:02.515Z,57.78
2022-08-07T07:18:02.496Z,58.18
2022-08-07T07:19:11.142Z,58.18
2022-08-07T07:20:02.885Z,57.98
2022-08-07T07:21:02.464Z,58.18
2022-08-07T07:22:11.932Z,58.08
2022-08-07T07:24:05.526Z,57.98
2022-08-07T07:24:05.978Z,58.08
2022-08-07T07:25:14.191Z,58.18
2022-08-07T07:26:33.531Z,58.28
2022-08-07T07:27:03.415Z,58.28
2022-08-07T07:28:07.551Z,58.18
2022-08-07T07:29:40.048Z,58.18
2022-08-07T07:30:09.783Z,58.28
2022-08-07T07:31:03.369Z,58.38
2022-08-07T07:32:02.312Z,58.08
2022-08-07T07:33:02.295Z,57.98
2022-08-07T07:34:02.291Z,57.98
2022-08-07T07:35:04.047Z,58.18
2022-08-07T07:36:12.716Z,58.18
2022-08-07T07:37:14.610Z,57.78
2022-08-07T07:38:04.902Z,57.68
2022-08-07T07:39:02.308Z,57.98
2022-08-07T07:40:02.282Z,58.08
2022-08-07T07:41:02.726Z,58.18
2022-08-07T07:42:13.385Z,58.28
2022-08-07T07:43:15.376Z,58.08
2022-08-07T07:44:18.079Z,57.68
2022-08-07T07:45:02.328Z,57.98
2022-08-07T07:46:37.490Z,58.08
2022-08-07T07:47:13.981Z,58.18
2022-08-07T07:48:03.147Z,58.28
2022-08-07T07:49:08.914Z,58.28
2022-08-07T07:50:33.946Z,57.78
2022-08-07T07:51:03.103Z,57.78
2022-08-07T07:52:02.048Z,57.38
2022-08-07T07:53:02.036Z,56.88
2022-08-07T07:54:02.025Z,56.18
2022-08-07T07:55:03.470Z,56.48
2022-08-07T07:56:02.009Z,57.38
2022-08-07T07:57:03.035Z,57.58
2022-08-07T07:58:01.982Z,57.88
2022-08-07T07:59:02.122Z,57.98
2022-08-07T08:00:02.150Z,57.98
2022-08-07T08:01:02.004Z,57.98
2022-08-07T08:02:05.244Z,57.88
2022-08-07T08:03:05.540Z,57.98
2022-08-07T08:04:09.697Z,57.98
2022-08-07T08:05:02.920Z,57.68
2022-08-07T08:06:01.867Z,57.58
2022-08-07T08:07:02.820Z,57.78
2022-08-07T08:08:02.037Z,57.88
2022-08-07T08:09:01.831Z,57.98
2022-08-07T08:10:04.851Z,57.88
2022-08-07T08:11:01.801Z,57.98
2022-08-07T08:12:05.237Z,58.08
2022-08-07T08:13:03.044Z,58.08
2022-08-07T08:14:01.773Z,57.98
2022-08-07T08:15:01.750Z,58.08
2022-08-07T08:16:01.734Z,57.88
2022-08-07T08:17:56.033Z,58.08
2022-08-07T08:18:17.856Z,57.98
2022-08-07T08:19:09.800Z,57.28
2022-08-07T08:20:17.081Z,56.48
2022-08-07T08:21:02.701Z,56.48
2022-08-07T08:22:03.688Z,56.78
2022-08-07T08:23:01.644Z,57.18
2022-08-07T08:24:01.641Z,57.38
2022-08-07T08:25:18.127Z,57.28
2022-08-07T08:26:06.923Z,57.58
2022-08-07T08:27:01.594Z,57.68
2022-08-07T08:28:03.971Z,57.58
2022-08-07T08:29:01.564Z,57.68
2022-08-07T08:30:04.593Z,57.68
2022-08-07T08:31:01.542Z,57.68
2022-08-07T08:32:18.287Z,57.78
2022-08-07T08:33:01.817Z,57.28
2022-08-07T08:34:01.498Z,57.38
2022-08-07T08:35:01.492Z,57.68
2022-08-07T08:36:07.488Z,57.68
2022-08-07T08:37:59.399Z,57.58
2022-08-07T08:38:30.798Z,57.58
2022-08-07T08:39:39.657Z,57.68
2022-08-07T08:40:29.541Z,57.78
2022-08-07T08:41:31.605Z,57.78
2022-08-07T08:42:29.477Z,57.68
2022-08-07T08:43:41.778Z,57.78
2022-08-07T08:44:31.467Z,56.88
2022-08-07T08:45:41.890Z,57.28
2022-08-07T08:46:29.419Z,57.38
2022-08-07T08:47:28.647Z,57.38
2022-08-07T08:48:32.502Z,57.08
2022-08-07T08:49:33.649Z,56.18
2022-08-07T08:50:39.486Z,57.18
2022-08-07T08:51:49.285Z,57.08
2022-08-07T08:52:30.320Z,55.67
2022-08-07T08:53:29.429Z,55.37
2022-08-07T08:54:28.282Z,55.07
2022-08-07T08:55:54.482Z,54.47
2022-08-07T08:56:29.298Z,53.67
2022-08-07T08:57:30.438Z,53.86
2022-08-07T08:58:28.470Z,53.27
2022-08-07T08:59:28.213Z,52.86
2022-08-07T09:00:28.760Z,54.17
2022-08-07T09:01:29.885Z,54.77
2022-08-07T09:02:35.282Z,54.17
2022-08-07T09:03:47.762Z,56.07
2022-08-07T09:04:30.121Z,55.87
2022-08-07T09:05:36.664Z,55.98
2022-08-07T09:06:29.163Z,56.18
2022-08-07T09:07:28.651Z,55.78
2022-08-07T09:08:29.144Z,55.07
2022-08-07T09:09:30.038Z,54.47
2022-08-07T09:10:28.071Z,54.27
2022-08-07T09:11:43.304Z,52.97
2022-08-07T09:12:31.049Z,52.46
2022-08-07T09:13:35.246Z,52.26
2022-08-07T09:14:29.695Z,52.26
2022-08-07T09:16:22.696Z,52.36
2022-08-07T09:16:30.361Z,52.06
2022-08-07T09:17:34.088Z,52.16
2022-08-07T09:18:29.003Z,52.14
2022-08-07T09:19:53.180Z,52.64
2022-08-07T09:20:35.850Z,52.34
2022-08-07T09:21:34.275Z,53.34
2022-08-07T09:24:29.431Z,52.84
2022-08-07T09:24:32.765Z,52.44
2022-08-07T09:24:59.774Z,52.74
2022-08-07T09:25:59.921Z,53.77
2022-08-07T09:27:04.592Z,54.37
2022-08-07T09:28:01.933Z,54.67
2022-08-07T09:30:00.815Z,54.27
2022-08-07T09:30:08.571Z,53.14
2022-08-07T09:31:00.895Z,52.54
2022-08-07T09:31:59.842Z,52.54
2022-08-07T09:32:59.836Z,52.34
2022-08-07T09:34:00.860Z,52.04
2022-08-07T09:34:59.809Z,53.04
2022-08-07T09:36:02.674Z,52.64
2022-08-07T09:37:00.824Z,54.34
2022-08-07T09:38:00.365Z,54.74
2022-08-07T09:38:59.796Z,55.04
2022-08-07T09:40:00.811Z,54.74
2022-08-07T09:40:59.727Z,54.54
2022-08-07T09:42:06.007Z,54.54
2022-08-07T09:43:00.742Z,55.35
2022-08-07T09:44:05.953Z,55.24
2022-08-07T09:47:24.371Z,53.34
2022-08-07T09:47:25.073Z,53.34
2022-08-07T09:47:50.518Z,53.54
2022-08-07T09:48:04.057Z,54.24
2022-08-07T09:50:00.616Z,54.54
2022-08-07T09:50:18.290Z,53.74
2022-08-07T09:51:00.626Z,53.54
2022-08-07T09:52:15.380Z,53.24
2022-08-07T09:53:00.744Z,52.34
2022-08-07T09:54:02.708Z,53.54
2022-08-07T09:54:59.543Z,54.54
2022-08-07T09:56:03.246Z,54.44
2022-08-07T09:56:59.518Z,53.94
2022-08-07T09:57:59.502Z,53.24
2022-08-07T09:58:59.492Z,53.44
2022-08-07T10:00:01.252Z,54.24
2022-08-07T10:01:51.881Z,53.94
2022-08-07T10:02:35.438Z,54.85
2022-08-07T10:04:06.797Z,54.74
2022-08-07T10:04:38.224Z,54.44
2022-08-07T10:06:01.305Z,55.15
2022-08-07T10:06:35.668Z,55.45
2022-08-07T10:07:52.307Z,55.35
2022-08-07T10:08:35.354Z,55.55
2022-08-07T10:09:59.140Z,55.24
2022-08-07T10:11:00.172Z,53.34
2022-08-07T10:12:01.168Z,52.64
2022-08-07T10:12:39.701Z,53.24
2022-08-07T10:14:00.220Z,52.64
2022-08-07T10:14:35.285Z,53.54
2022-08-07T10:15:37.539Z,52.84
2022-08-07T10:16:35.256Z,53.84
2022-08-07T10:18:01.371Z,54.34
2022-08-07T10:18:35.370Z,54.94
2022-08-07T10:19:37.579Z,54.85
2022-08-07T10:20:34.169Z,55.04
2022-08-07T10:22:16.237Z,54.85
2022-08-07T10:22:36.765Z,54.44
2022-08-07T10:24:05.251Z,54.15
2022-08-07T10:24:39.582Z,53.94
2022-08-07T10:25:42.807Z,54.24
2022-08-07T10:26:35.127Z,54.94
2022-08-07T10:27:46.598Z,54.44
2022-08-07T10:28:35.099Z,53.94
2022-08-07T10:29:35.058Z,54.04
2022-08-07T10:30:34.041Z,54.24
2022-08-07T10:31:38.942Z,54.34
2022-08-07T10:32:51.241Z,53.84
2022-08-07T10:34:07.000Z,52.04
2022-08-07T10:34:35.012Z,52.54
2022-08-07T10:35:56.709Z,52.84
2022-08-07T10:36:36.119Z,53.84
2022-08-07T10:38:00.703Z,54.44
2022-08-07T10:38:42.336Z,54.94
2022-08-07T10:39:41.610Z,54.24
2022-08-07T10:40:34.989Z,54.94
2022-08-07T10:41:52.192Z,55.65
2022-08-07T10:42:36.463Z,54.94
2022-08-07T10:43:34.644Z,54.65
2022-08-07T10:44:38.209Z,54.15
2022-08-07T10:45:44.157Z,54.54
2022-08-07T10:46:34.850Z,55.15
2022-08-07T10:47:53.214Z,55.55
2022-08-07T10:48:35.449Z,55.35
2022-08-07T10:49:49.844Z,54.94
2022-08-07T10:50:34.811Z,54.24
2022-08-07T10:51:57.169Z,53.84
2022-08-07T10:52:34.771Z,54.34
2022-08-07T10:53:44.416Z,54.04
2022-08-07T10:54:34.745Z,53.64
2022-08-07T10:55:38.570Z,54.24
2022-08-07T10:56:33.683Z,54.74
2022-08-07T10:57:34.454Z,53.14
2022-08-07T10:58:40.427Z,53.54
2022-08-07T10:59:37.111Z,53.24
2022-08-07T11:00:36.198Z,52.84
2022-08-07T11:01:35.346Z,52.74
2022-08-07T11:02:35.157Z,51.64
2022-08-07T11:03:37.760Z,52.23
2022-08-07T11:04:37.801Z,52.94
2022-08-07T11:05:48.601Z,53.04
2022-08-07T11:06:34.591Z,52.74
2022-08-07T11:07:58.899Z,52.84
2022-08-07T11:08:34.554Z,53.04
2022-08-07T11:10:09.401Z,53.04
2022-08-07T11:10:34.529Z,53.14
2022-08-07T11:11:35.593Z,53.74
2022-08-07T11:12:35.486Z,53.64
2022-08-07T11:14:42.075Z,53.64
2022-08-07T11:14:44.045Z,54.34
2022-08-07T11:15:34.470Z,52.84
2022-08-07T11:16:33.414Z,51.84
2022-08-07T11:17:45.154Z,51.53
2022-08-07T11:18:33.401Z,52.23
2022-08-07T11:19:33.378Z,52.74
2022-08-07T11:20:33.364Z,52.34
2022-08-07T11:21:33.349Z,52.34
2022-08-07T11:22:44.089Z,53.14
2022-08-07T11:23:36.624Z,53.54
2022-08-07T11:24:33.310Z,54.15
2022-08-07T11:25:36.056Z,54.15
2022-08-07T11:26:34.316Z,54.15
2022-08-07T11:28:00.793Z,53.84
2022-08-07T11:28:34.296Z,54.24
2022-08-07T11:29:42.069Z,54.24
2022-08-07T11:30:41.372Z,54.34
2022-08-07T11:31:35.103Z,53.34
2022-08-07T11:32:33.207Z,52.74
2022-08-07T11:33:53.892Z,52.84
2022-08-07T11:34:34.215Z,52.34
2022-08-07T11:35:33.173Z,52.64
2022-08-07T11:36:33.159Z,53.14
2022-08-07T11:37:38.488Z,52.31
2022-08-07T11:38:34.159Z,53.04
2022-08-07T11:39:39.746Z,53.04
2022-08-07T11:40:34.133Z,53.14
2022-08-07T11:42:01.541Z,54.24
2022-08-07T11:42:34.115Z,54.54
2022-08-07T11:43:54.603Z,54.04
2022-08-07T11:44:34.458Z,52.94
2022-08-07T11:45:36.151Z,53.04
2022-08-07T11:46:33.027Z,53.24
2022-08-07T11:47:38.840Z,53.24
2022-08-07T11:48:34.028Z,52.11
2022-08-07T11:50:11.261Z,52.01
2022-08-07T11:50:34.059Z,52.61
2022-08-07T11:51:44.651Z,52.11
2022-08-07T11:52:35.760Z,51.51
2022-08-07T11:53:35.272Z,52.01
2022-08-07T11:54:32.912Z,52.71
2022-08-07T11:56:13.983Z,53.11
2022-08-07T11:56:34.093Z,52.61
2022-08-07T11:57:59.575Z,52.31
2022-08-07T11:58:33.901Z,51.81
2022-08-07T12:00:11.440Z,51.31
2022-08-07T12:00:32.840Z,52.11
2022-08-07T12:01:59.998Z,51.21
2022-08-07T12:02:33.943Z,51.61
2022-08-07T12:03:45.674Z,51.51
2022-08-07T12:04:33.816Z,51.61
2022-08-07T12:05:47.067Z,52.61
2022-08-07T12:06:39.808Z,53.22
2022-08-07T12:07:39.241Z,54.11
2022-08-07T12:08:34.861Z,54.62
2022-08-07T12:09:32.725Z,54.32
2022-08-07T12:10:32.700Z,54.22
2022-08-07T12:11:32.736Z,53.32
2022-08-07T12:12:32.686Z,52.81
2022-08-07T12:13:36.665Z,52.41
2022-08-07T12:14:32.659Z,52.61
2022-08-07T12:16:05.064Z,51.61
2022-08-07T12:16:33.674Z,51.41
2022-08-07T12:17:33.895Z,51.61
2022-08-07T12:18:32.597Z,51.21
2022-08-07T12:19:35.975Z,51.21
2022-08-07T12:20:33.704Z,51.21
2022-08-07T12:22:35.721Z,51.91
2022-08-07T12:22:37.988Z,52.31
2022-08-07T12:24:06.001Z,52.21
2022-08-07T12:24:37.392Z,52.41
2022-08-07T12:26:03.310Z,52.71
2022-08-07T12:26:41.897Z,53.61
2022-08-07T12:28:09.820Z,52.71
2022-08-07T12:28:33.499Z,52.61
2022-08-07T12:29:37.908Z,53.41
2022-08-07T12:30:33.478Z,54.02
2022-08-07T12:31:53.369Z,53.32
2022-08-07T12:32:33.451Z,51.51
2022-08-07T12:33:55.958Z,50.61
2022-08-07T12:34:33.419Z,50.71
2022-08-07T12:35:36.262Z,51.31
2022-08-07T12:36:33.609Z,50.81
2022-08-07T12:38:11.731Z,50.81
2022-08-07T12:38:43.075Z,51.01
2022-08-07T12:39:44.160Z,51.41
2022-08-07T12:40:48.952Z,51.71
2022-08-07T12:41:49.338Z,52.41
2022-08-07T12:42:33.324Z,52.41
2022-08-07T12:44:03.749Z,52.11
2022-08-07T12:44:33.296Z,51.41
2022-08-07T12:45:32.241Z,52.21
2022-08-07T12:46:34.486Z,50.41
2022-08-07T12:47:32.573Z,50.51
2022-08-07T12:48:41.627Z,49.71
2022-08-07T12:49:44.697Z,49.91
2022-08-07T12:50:39.473Z,50.41
2022-08-07T12:51:51.497Z,51.31
2022-08-07T12:52:33.863Z,51.41
2022-08-07T12:54:03.036Z,50.41